Time;durP1;ratioP1;P1;durP2;ratioP2;P2;SDS_P1;SDS_P2;PMS_P1;PMS_P2;Temp;Humidity;BMP_temperature;BMP_pressure;BME280_temperature;BME280_humidity;BME280_pressure;Samples;Min_cycle;Max_cycle;Signal;HPM_P1;HPM_P2
2022/07/22 00:01:33;;;;;;;1.80;0.80;;;15.80;99.90;;;;;;4983838;28;20056;-76
2022/07/22 00:03:59;;;;;;;3.35;1.10;;;15.60;99.90;;;;;;4968157;28;20552;-76
2022/07/22 00:06:25;;;;;;;2.35;1.10;;;15.60;99.90;;;;;;5000107;28;20565;-76
2022/07/22 00:08:51;;;;;;;2.30;1.33;;;15.60;99.90;;;;;;5000508;28;20040;-76
2022/07/22 00:11:17;;;;;;;2.45;1.30;;;15.60;99.90;;;;;;4983643;28;20041;-76
2022/07/22 00:13:42;;;;;;;3.22;1.23;;;15.60;99.90;;;;;;4999646;28;20041;-76
2022/07/22 00:16:08;;;;;;;2.40;1.30;;;15.40;99.90;;;;;;4982477;28;20140;-76
2022/07/22 00:18:34;;;;;;;4.43;1.38;;;15.60;99.90;;;;;;4999784;28;20041;-76
2022/07/22 00:21:00;;;;;;;4.18;1.23;;;15.60;99.90;;;;;;4999654;28;20053;-76
2022/07/22 00:23:25;;;;;;;5.07;0.95;;;15.60;99.90;;;;;;5015949;28;20049;-76
2022/07/22 00:25:51;;;;;;;3.42;1.38;;;15.60;99.90;;;;;;4999654;28;20545;-76
2022/07/22 00:28:17;;;;;;;3.13;1.17;;;15.60;99.90;;;;;;4983349;28;20080;-77
2022/07/22 00:30:42;;;;;;;3.83;1.40;;;15.60;99.90;;;;;;4999535;28;20056;-76
2022/07/22 00:33:08;;;;;;;2.50;1.00;;;15.60;99.90;;;;;;4999430;28;20459;-76
2022/07/22 00:35:34;;;;;;;2.75;1.25;;;15.60;99.90;;;;;;4999739;28;20072;-76
2022/07/22 00:38:00;;;;;;;2.88;1.73;;;15.60;99.90;;;;;;5015676;28;20134;-76
2022/07/22 00:40:25;;;;;;;1.27;0.93;;;15.60;99.90;;;;;;5015858;28;20045;-76
2022/07/22 00:42:52;;;;;;;3.38;1.30;;;15.60;99.90;;;;;;4999586;28;20044;-76
2022/07/22 00:45:19;;;;;;;1.38;0.82;;;15.60;99.90;;;;;;4999407;28;20045;-76
2022/07/22 00:47:44;;;;;;;3.88;1.08;;;15.60;99.90;;;;;;4983093;28;20037;-76
2022/07/22 00:50:11;;;;;;;1.85;1.05;;;15.60;99.90;;;;;;4999140;28;20041;-77
2022/07/22 00:52:40;;;;;;;4.68;1.13;;;15.60;99.90;;;;;;4999178;28;20088;-76
2022/07/22 00:55:07;;;;;;;1.77;1.30;;;15.60;99.90;;;;;;4967985;28;20080;-76
2022/07/22 00:57:33;;;;;;;2.60;1.40;;;15.60;99.90;;;;;;5015671;28;20045;-76
2022/07/22 00:59:58;;;;;;;3.28;1.40;;;15.60;99.90;;;;;;4998874;28;20045;-76
2022/07/22 01:02:24;;;;;;;4.18;1.25;;;15.60;99.90;;;;;;4966814;28;20041;-76
2022/07/22 01:04:50;;;;;;;5.47;1.40;;;15.60;99.90;;;;;;5015330;28;20448;-76
2022/07/22 01:07:16;;;;;;;3.40;1.25;;;15.60;99.90;;;;;;4999255;28;20044;-76
2022/07/22 01:09:43;;;;;;;6.00;1.50;;;15.60;99.90;;;;;;5014667;28;20041;-76
2022/07/22 01:12:09;;;;;;;4.18;1.60;;;15.60;99.90;;;;;;4966848;28;20124;-75
2022/07/22 01:14:35;;;;;;;2.58;1.35;;;15.60;99.90;;;;;;5015448;28;20545;-76
2022/07/22 01:17:01;;;;;;;2.90;1.65;;;15.60;99.90;;;;;;4998770;28;20136;-76
2022/07/22 01:19:27;;;;;;;2.30;1.30;;;15.60;99.90;;;;;;5015104;28;20052;-76
2022/07/22 01:21:52;;;;;;;2.63;1.02;;;15.60;99.90;;;;;;5015044;28;20057;-76
2022/07/22 01:24:18;;;;;;;2.67;1.48;;;15.60;99.90;;;;;;4998752;28;20044;-76
2022/07/22 01:26:44;;;;;;;2.47;1.25;;;15.60;99.90;;;;;;5015193;28;20120;-76
2022/07/22 01:29:12;;;;;;;2.92;1.70;;;15.70;99.90;;;;;;5019384;28;20030;-76
2022/07/22 01:31:38;;;;;;;2.03;1.20;;;15.60;99.90;;;;;;5019179;28;20041;-76
2022/07/22 01:34:04;;;;;;;1.63;1.20;;;15.60;99.90;;;;;;5002616;28;20045;-76
2022/07/22 01:36:30;;;;;;;2.10;1.30;;;15.60;99.90;;;;;;5002672;28;20045;-76
2022/07/22 01:38:56;;;;;;;1.42;1.15;;;15.60;99.90;;;;;;5019265;28;20049;-76
2022/07/22 01:41:22;;;;;;;4.55;1.20;;;15.60;99.90;;;;;;5003176;28;20457;-75
2022/07/22 01:43:47;;;;;;;2.70;1.23;;;15.50;99.90;;;;;;5019167;28;20095;-76
2022/07/22 01:46:13;;;;;;;2.65;1.00;;;15.60;99.90;;;;;;5018917;28;20037;-76
2022/07/22 01:48:40;;;;;;;2.03;1.25;;;15.60;99.90;;;;;;5019209;28;20088;-76
2022/07/22 01:51:05;;;;;;;3.03;1.30;;;15.50;99.90;;;;;;5019106;28;20033;-76
2022/07/22 01:53:31;;;;;;;3.80;1.35;;;15.50;99.90;;;;;;5002379;28;20041;-76
2022/07/22 01:55:57;;;;;;;2.97;1.55;;;15.50;99.90;;;;;;4986138;28;20493;-76
2022/07/22 01:58:22;;;;;;;5.57;1.38;;;15.50;99.90;;;;;;5002660;28;20442;-76
2022/07/22 02:00:48;;;;;;;2.65;1.00;;;15.50;99.90;;;;;;5002274;28;20049;-76
2022/07/22 02:03:14;;;;;;;3.42;1.10;;;15.50;99.90;;;;;;5018553;28;20518;-76
2022/07/22 02:05:40;;;;;;;2.30;1.30;;;15.50;99.90;;;;;;5002492;28;20132;-77
2022/07/22 02:08:08;;;;;;;1.95;0.98;;;15.50;99.90;;;;;;5002154;28;20041;-76
2022/07/22 02:10:34;;;;;;;5.72;1.20;;;15.50;99.90;;;;;;5018706;28;20052;-76
2022/07/22 02:13:04;;;;;;;1.63;1.10;;;15.70;99.90;;;;;;5018785;28;20044;-75
2022/07/22 02:15:30;;;;;;;1.80;1.00;;;15.50;99.90;;;;;;5001966;28;20061;-76
2022/07/22 02:17:55;;;;;;;1.55;0.95;;;15.50;99.90;;;;;;5002014;28;20041;-76
2022/07/22 02:20:22;;;;;;;2.42;1.25;;;15.40;99.90;;;;;;5018519;28;20048;-76
2022/07/22 02:22:51;;;;;;;1.67;1.15;;;15.50;99.90;;;;;;5001864;28;20037;-76
2022/07/22 02:25:17;;;;;;;2.10;1.08;;;15.50;99.90;;;;;;5001765;28;20056;-76
2022/07/22 02:27:43;;;;;;;2.17;0.93;;;15.50;99.90;;;;;;5002141;28;20034;-77
2022/07/22 02:30:09;;;;;;;4.68;1.00;;;15.40;99.90;;;;;;5018436;28;20044;-76
2022/07/22 02:32:35;;;;;;;4.55;1.30;;;15.50;99.90;;;;;;5018369;28;20424;-76
2022/07/22 02:35:01;;;;;;;1.27;1.00;;;15.50;99.90;;;;;;5001822;28;20037;-76
2022/07/22 02:37:31;;;;;;;4.43;1.23;;;15.50;99.90;;;;;;4985819;28;20045;-76
2022/07/22 02:39:57;;;;;;;1.35;0.68;;;15.40;99.90;;;;;;5001004;28;20477;-76
2022/07/22 02:42:22;;;;;;;2.17;1.00;;;15.40;99.90;;;;;;5017893;28;20115;-77
2022/07/22 02:44:48;;;;;;;1.08;0.93;;;15.40;99.90;;;;;;5017894;28;20041;-76
2022/07/22 02:47:14;;;;;;;1.23;0.85;;;15.40;99.90;;;;;;4985525;28;20044;-75
2022/07/22 02:49:40;;;;;;;1.88;1.05;;;15.40;99.90;;;;;;4985711;28;20037;-76
2022/07/22 02:52:13;;;;;;;1.15;0.90;;;15.40;99.90;;;;;;4985409;28;20171;-76
2022/07/22 02:54:39;;;;;;;1.80;0.65;;;15.40;99.90;;;;;;5017659;28;20046;-76
2022/07/22 02:57:04;;;;;;;0.95;0.75;;;15.40;99.90;;;;;;4985012;28;20106;-76
2022/07/22 02:59:30;;;;;;;2.47;0.90;;;15.40;99.90;;;;;;5001550;28;20167;-76
2022/07/22 03:01:56;;;;;;;1.00;0.88;;;15.40;99.90;;;;;;5017489;28;20120;-76
2022/07/22 03:04:21;;;;;;;1.42;0.90;;;15.40;99.90;;;;;;4969136;28;20481;-76
2022/07/22 03:06:47;;;;;;;1.38;0.70;;;15.40;99.90;;;;;;5001080;28;20053;-76
2022/07/22 03:09:13;;;;;;;3.20;0.77;;;15.40;99.90;;;;;;5017410;28;20460;-76
2022/07/22 03:11:38;;;;;;;3.78;0.90;;;15.30;99.90;;;;;;4985027;28;20048;-76
2022/07/22 03:14:04;;;;;;;1.50;0.80;;;15.30;99.90;;;;;;4984804;28;20045;-76
2022/07/22 03:16:30;;;;;;;2.95;1.17;;;15.30;99.90;;;;;;4997529;28;20068;-76
2022/07/22 03:18:56;;;;;;;2.25;1.20;;;15.30;99.90;;;;;;5014194;28;20056;-76
2022/07/22 03:21:21;;;;;;;1.88;0.77;;;15.30;99.90;;;;;;4997724;28;20045;-76
2022/07/22 03:23:47;;;;;;;1.70;1.02;;;15.30;99.90;;;;;;5014075;28;20045;-76
2022/07/22 03:26:13;;;;;;;3.40;0.90;;;15.30;99.90;;;;;;4997413;28;20073;-76
2022/07/22 03:28:38;;;;;;;2.28;0.90;;;15.30;99.90;;;;;;5013695;28;20125;-76
2022/07/22 03:31:04;;;;;;;0.95;0.70;;;15.30;99.90;;;;;;5013662;28;20565;-76
2022/07/22 03:33:30;;;;;;;2.45;0.80;;;15.30;99.90;;;;;;4997346;28;20085;-76
2022/07/22 03:35:55;;;;;;;3.65;0.85;;;15.30;99.90;;;;;;5013592;28;20413;-76
2022/07/22 03:38:21;;;;;;;1.13;0.77;;;15.30;99.90;;;;;;5013598;28;20503;-76
2022/07/22 03:40:47;;;;;;;0.45;0.45;;;15.30;99.90;;;;;;4997356;28;20120;-75
2022/07/22 03:43:13;;;;;;;1.17;0.80;;;15.30;99.90;;;;;;4997372;28;20046;-76
2022/07/22 03:45:38;;;;;;;0.95;0.60;;;15.30;99.90;;;;;;5013724;28;20041;-76
2022/07/22 03:48:04;;;;;;;1.55;0.73;;;15.30;99.90;;;;;;5013632;28;20042;-76
2022/07/22 03:50:30;;;;;;;3.53;1.08;;;15.40;99.90;;;;;;4996866;28;20073;-76
2022/07/22 03:52:56;;;;;;;1.20;0.77;;;15.40;99.90;;;;;;5014908;28;20045;-75
2022/07/22 03:55:22;;;;;;;1.70;0.75;;;15.30;99.90;;;;;;4997028;28;20116;-75
2022/07/22 03:57:47;;;;;;;1.33;0.68;;;15.30;99.90;;;;;;5013207;28;20046;-76
2022/07/22 04:00:14;;;;;;;1.08;0.70;;;15.30;99.90;;;;;;5013270;28;20128;-76
2022/07/22 04:02:40;;;;;;;1.23;0.65;;;15.30;99.90;;;;;;5013377;28;20129;-76
2022/07/22 04:05:06;;;;;;;2.50;0.85;;;15.30;99.90;;;;;;5013017;28;20073;-76
2022/07/22 04:07:32;;;;;;;0.93;0.70;;;15.30;99.90;;;;;;4996732;28;20458;-76
2022/07/22 04:10:04;;;;;;;1.15;0.80;;;15.30;99.90;;;;;;5012969;28;20481;-76
2022/07/22 04:12:35;;;;;;;4.07;0.88;;;15.30;99.90;;;;;;4996902;28;20478;-76
2022/07/22 04:15:01;;;;;;;;;;;15.30;99.90;;;;;;5013828;28;20395;-76
2022/07/22 04:17:26;;;;;;;1.38;0.65;;;15.30;99.90;;;;;;5000150;28;19921;-76
2022/07/22 04:19:52;;;;;;;1.05;0.80;;;15.30;99.90;;;;;;4999837;28;20041;-76
2022/07/22 04:22:19;;;;;;;2.17;0.80;;;15.40;99.90;;;;;;4999835;28;20045;-76
2022/07/22 04:24:44;;;;;;;1.98;0.80;;;15.30;99.90;;;;;;5016017;28;20045;-76
2022/07/22 04:27:10;;;;;;;1.92;0.73;;;15.40;99.90;;;;;;4983472;28;20038;-76
2022/07/22 04:29:36;;;;;;;1.00;0.70;;;15.30;99.90;;;;;;4999809;28;20041;-76
2022/07/22 04:32:01;;;;;;;1.75;0.88;;;15.40;99.90;;;;;;4999779;28;20052;-76
2022/07/22 04:34:27;;;;;;;1.40;0.47;;;15.40;99.90;;;;;;4999789;28;20050;-76
2022/07/22 04:36:52;;;;;;;0.98;0.60;;;15.40;99.90;;;;;;4999665;28;20107;-76
2022/07/22 04:39:18;;;;;;;2.22;0.73;;;15.40;99.90;;;;;;4999713;28;20121;-76
2022/07/22 04:41:44;;;;;;;1.38;0.50;;;15.40;99.90;;;;;;4983174;28;20042;-75
2022/07/22 04:44:10;;;;;;;1.58;0.90;;;15.40;99.90;;;;;;4999685;28;20078;-76
2022/07/22 04:46:36;;;;;;;1.45;0.77;;;15.40;99.90;;;;;;4999329;28;20406;-76
2022/07/22 04:49:02;;;;;;;3.53;0.77;;;15.80;99.90;;;;;;5015592;28;20041;-76
2022/07/22 04:51:27;;;;;;;1.40;0.65;;;15.40;99.90;;;;;;4999581;28;20091;-76
2022/07/22 04:53:54;;;;;;;3.90;0.95;;;15.50;99.90;;;;;;5015684;28;20072;-76
2022/07/22 04:56:20;;;;;;;2.05;1.08;;;15.50;99.90;;;;;;4999109;28;20045;-76
2022/07/22 04:58:45;;;;;;;0.80;0.73;;;15.40;99.90;;;;;;4999384;28;20042;-75
2022/07/22 05:01:11;;;;;;;1.27;0.70;;;15.50;99.90;;;;;;4982840;28;20049;-76
2022/07/22 05:03:40;;;;;;;1.77;0.73;;;15.50;99.90;;;;;;4999135;28;20045;-76
2022/07/22 05:06:06;;;;;;;1.77;0.60;;;15.50;99.90;;;;;;5015366;28;20457;-76
2022/07/22 05:08:32;;;;;;;0.98;0.70;;;15.50;99.90;;;;;;5015485;28;20080;-76
2022/07/22 05:10:57;;;;;;;1.40;0.75;;;15.50;99.90;;;;;;4999252;28;20057;-76
2022/07/22 05:13:23;;;;;;;2.08;0.73;;;15.60;99.90;;;;;;4982996;28;20038;-76
2022/07/22 05:15:49;;;;;;;2.17;0.82;;;15.60;99.90;;;;;;4998700;28;20061;-76
2022/07/22 05:18:16;;;;;;;2.47;0.93;;;15.60;99.90;;;;;;4982758;28;20497;-76
2022/07/22 05:20:42;;;;;;;1.92;0.77;;;15.70;99.90;;;;;;4998868;28;20042;-76
2022/07/22 05:23:07;;;;;;;2.75;0.90;;;15.60;99.90;;;;;;4999104;28;20037;-75
2022/07/22 05:25:33;;;;;;;0.70;0.60;;;15.60;99.90;;;;;;4998910;28;20033;-75
2022/07/22 05:27:59;;;;;;;2.40;0.60;;;15.70;99.90;;;;;;4982948;28;20043;-76
2022/07/22 05:30:25;;;;;;;1.05;0.60;;;15.70;99.90;;;;;;4998731;28;20151;-75
2022/07/22 05:32:52;;;;;;;1.65;0.70;;;15.70;99.90;;;;;;5015144;28;20079;-76
2022/07/22 05:35:19;;;;;;;3.63;0.70;;;15.80;99.90;;;;;;5014982;28;20133;-76
2022/07/22 05:37:45;;;;;;;3.45;0.70;;;15.80;99.90;;;;;;4998732;28;20132;-75
2022/07/22 05:40:11;;;;;;;3.92;1.02;;;15.80;99.90;;;;;;4982598;28;20041;-76
2022/07/22 05:42:36;;;;;;;1.90;0.73;;;15.80;99.90;;;;;;4998637;28;20038;-76
2022/07/22 05:45:03;;;;;;;3.65;0.85;;;15.80;99.90;;;;;;4998606;28;20374;-75
2022/07/22 05:47:28;;;;;;;2.25;0.90;;;15.80;99.90;;;;;;4998617;28;20092;-76
2022/07/22 05:49:57;;;;;;;1.83;0.73;;;15.90;99.90;;;;;;4998550;28;20041;-76
2022/07/22 05:52:26;;;;;;;2.50;0.90;;;15.90;99.90;;;;;;4983527;28;20056;-76
2022/07/22 05:54:51;;;;;;;1.13;0.70;;;15.90;99.90;;;;;;4983105;28;20170;-76
2022/07/22 05:57:17;;;;;;;4.18;0.88;;;15.90;99.90;;;;;;5015151;28;20045;-76
2022/07/22 05:59:43;;;;;;;1.15;0.90;;;15.90;99.90;;;;;;4998533;28;20081;-76
2022/07/22 06:02:08;;;;;;;2.50;0.82;;;15.90;99.90;;;;;;4982123;28;20124;-75
2022/07/22 06:04:34;;;;;;;3.42;0.80;;;15.90;99.90;;;;;;4982560;28;20493;-76
2022/07/22 06:07:00;;;;;;;1.27;0.73;;;16.00;99.90;;;;;;4982276;28;20034;-76
2022/07/22 06:09:33;;;;;;;1.75;0.88;;;16.00;99.90;;;;;;4998425;28;20037;-75
2022/07/22 06:11:59;;;;;;;1.80;1.02;;;16.10;99.90;;;;;;4982316;28;20050;-75
2022/07/22 06:14:25;;;;;;;4.07;0.63;;;16.10;99.90;;;;;;5001167;28;20231;-76
2022/07/22 06:16:50;;;;;;;1.98;0.75;;;16.10;99.90;;;;;;5020489;28;20065;-75
2022/07/22 06:19:16;;;;;;;1.70;0.77;;;16.10;99.90;;;;;;4985766;28;20515;-76
2022/07/22 06:21:42;;;;;;;4.13;0.82;;;16.10;99.90;;;;;;5018257;28;20167;-76
2022/07/22 06:24:08;;;;;;;2.50;0.95;;;16.20;99.90;;;;;;5018161;28;20063;-76
2022/07/22 06:26:33;;;;;;;0.60;0.60;;;16.20;99.90;;;;;;5018201;28;20511;-76
2022/07/22 06:28:59;;;;;;;1.00;0.65;;;16.20;99.90;;;;;;5002025;28;20042;-76
2022/07/22 06:31:25;;;;;;;4.45;0.73;;;16.30;99.90;;;;;;4985669;28;20063;-76
2022/07/22 06:33:53;;;;;;;1.08;0.60;;;16.30;99.90;;;;;;4985747;28;20041;-76
2022/07/22 06:36:18;;;;;;;1.75;0.73;;;16.40;99.90;;;;;;5017994;28;20037;-75
2022/07/22 06:38:44;;;;;;;3.10;0.85;;;16.40;99.90;;;;;;5001919;28;20140;-76
2022/07/22 06:41:10;;;;;;;1.67;0.73;;;16.40;99.90;;;;;;5001566;28;20128;-76
2022/07/22 06:43:36;;;;;;;2.83;0.68;;;16.50;99.90;;;;;;5001916;28;20446;-76
2022/07/22 06:46:02;;;;;;;2.67;0.63;;;16.50;99.90;;;;;;5017701;28;20239;-75
2022/07/22 06:48:28;;;;;;;1.20;0.75;;;16.50;99.90;;;;;;5017581;28;20077;-75
2022/07/22 06:50:53;;;;;;;1.33;0.60;;;16.50;99.90;;;;;;5001327;28;20048;-76
2022/07/22 06:53:19;;;;;;;1.33;0.80;;;16.70;99.90;;;;;;5017565;28;20534;-76
2022/07/22 06:55:45;;;;;;;3.65;0.88;;;16.70;99.90;;;;;;5017524;28;20048;-76
2022/07/22 06:58:11;;;;;;;1.88;0.57;;;16.70;99.90;;;;;;5001387;28;20049;-76
2022/07/22 07:00:37;;;;;;;0.82;0.60;;;17.10;99.90;;;;;;5017530;28;20041;-75
2022/07/22 07:03:02;;;;;;;0.68;0.52;;;16.80;99.90;;;;;;4968826;28;20042;-75
2022/07/22 07:05:28;;;;;;;1.50;0.82;;;16.90;99.90;;;;;;5017702;28;20041;-76
2022/07/22 07:07:55;;;;;;;1.00;0.70;;;16.90;99.90;;;;;;5001175;28;20041;-76
2022/07/22 07:10:21;;;;;;;1.50;0.80;;;17.00;99.90;;;;;;5001086;28;20045;-76
2022/07/22 07:12:47;;;;;;;0.60;0.60;;;17.10;99.90;;;;;;5001069;28;20045;-76
2022/07/22 07:15:13;;;;;;;3.20;0.80;;;17.10;99.90;;;;;;5017354;28;20448;-76
2022/07/22 07:17:39;;;;;;;3.35;0.65;;;17.40;99.90;;;;;;5017619;28;20141;-76
2022/07/22 07:20:05;;;;;;;1.33;0.63;;;17.20;99.90;;;;;;5017500;28;20077;-76
2022/07/22 07:22:32;;;;;;;1.20;0.60;;;17.30;99.90;;;;;;5000861;28;20045;-76
2022/07/22 07:25:03;;;;;;;1.50;0.75;;;17.20;99.90;;;;;;5000616;28;20044;-76
2022/07/22 07:27:28;;;;;;;3.38;0.68;;;17.30;99.90;;;;;;5017350;28;20088;-76
2022/07/22 07:29:54;;;;;;;2.95;0.70;;;17.30;99.90;;;;;;5001196;28;20037;-75
2022/07/22 07:32:20;;;;;;;0.63;0.57;;;17.40;99.90;;;;;;5000848;28;20041;-75
2022/07/22 07:34:45;;;;;;;0.57;0.50;;;17.40;99.90;;;;;;4984488;28;20041;-76
2022/07/22 07:37:11;;;;;;;2.10;0.50;;;17.40;99.90;;;;;;5000879;28;20374;-76
2022/07/22 07:39:37;;;;;;;2.20;0.60;;;17.40;99.90;;;;;;5016739;28;20041;-76
2022/07/22 07:42:02;;;;;;;0.95;0.73;;;17.50;99.90;;;;;;4984314;28;20056;-75
2022/07/22 07:44:28;;;;;;;0.77;0.50;;;17.50;99.90;;;;;;5017007;28;20036;-76
2022/07/22 07:46:54;;;;;;;4.03;0.52;;;17.60;99.90;;;;;;5000431;28;20042;-76
2022/07/22 07:49:19;;;;;;;1.25;0.50;;;17.60;99.90;;;;;;5000850;28;20033;-76
2022/07/22 07:51:45;;;;;;;4.22;0.70;;;17.70;99.90;;;;;;5000257;28;20499;-76
2022/07/22 07:54:11;;;;;;;2.33;0.57;;;17.70;99.90;;;;;;5016810;28;20128;-76
2022/07/22 07:56:37;;;;;;;4.88;0.65;;;17.70;99.90;;;;;;5000143;28;20128;-76
2022/07/22 07:59:03;;;;;;;4.18;0.70;;;17.70;99.90;;;;;;5016418;28;20045;-75
2022/07/22 08:01:28;;;;;;;1.48;0.70;;;17.70;99.90;;;;;;5000186;28;20049;-74
2022/07/22 08:03:54;;;;;;;2.25;0.80;;;17.60;99.90;;;;;;5000344;28;20040;-76
2022/07/22 08:06:20;;;;;;;1.50;0.68;;;17.60;99.90;;;;;;4983830;28;20128;-75
2022/07/22 08:08:46;;;;;;;1.75;0.63;;;17.60;99.90;;;;;;5016441;28;20045;-76
2022/07/22 08:11:11;;;;;;;3.28;0.73;;;17.70;99.90;;;;;;5016248;28;20041;-76
2022/07/22 08:13:37;;;;;;;1.17;0.60;;;17.60;99.90;;;;;;4999843;28;20485;-76
2022/07/22 08:16:03;;;;;;;1.13;0.57;;;17.70;99.90;;;;;;4964088;28;20087;-76
2022/07/22 08:18:29;;;;;;;0.60;0.50;;;17.70;99.90;;;;;;5012822;28;20054;-76
2022/07/22 08:20:55;;;;;;;3.10;0.70;;;17.70;99.90;;;;;;5012689;28;20077;-76
2022/07/22 08:23:21;;;;;;;3.90;0.47;;;17.80;99.90;;;;;;4996395;28;20046;-76
2022/07/22 08:25:47;;;;;;;0.35;0.30;;;17.70;99.90;;;;;;5012979;28;20072;-76
2022/07/22 08:28:13;;;;;;;1.98;0.60;;;17.80;99.90;;;;;;5012629;28;20103;-76
2022/07/22 08:30:39;;;;;;;1.92;0.55;;;17.80;99.90;;;;;;5012651;28;20037;-75
2022/07/22 08:33:06;;;;;;;1.20;0.60;;;17.80;99.90;;;;;;4996266;28;20128;-75
2022/07/22 08:35:32;;;;;;;1.35;0.70;;;17.80;99.90;;;;;;5013094;28;20042;-76
2022/07/22 08:37:58;;;;;;;0.77;0.50;;;17.70;99.90;;;;;;5011653;28;20133;-76
2022/07/22 08:40:24;;;;;;;1.40;0.68;;;17.60;99.90;;;;;;5012407;28;20133;-76
2022/07/22 08:42:51;;;;;;;1.33;0.40;;;17.60;99.90;;;;;;4996413;28;20040;-76
2022/07/22 08:45:17;;;;;;;1.90;0.75;;;17.60;99.90;;;;;;5012378;28;20445;-76
2022/07/22 08:47:51;;;;;;;1.90;0.95;;;17.70;99.90;;;;;;4996279;28;20033;-76
2022/07/22 08:50:17;;;;;;;1.23;0.50;;;17.60;99.90;;;;;;5012563;28;20073;-76
2022/07/22 08:52:43;;;;;;;1.88;0.75;;;17.60;99.90;;;;;;5012271;28;20038;-76
2022/07/22 08:55:09;;;;;;;1.77;0.60;;;17.50;99.90;;;;;;5012156;28;20052;-76
2022/07/22 08:57:43;;;;;;;1.45;0.40;;;17.50;99.90;;;;;;4996233;28;20092;-76
2022/07/22 09:00:12;;;;;;;1.33;0.45;;;17.50;99.90;;;;;;5011960;28;20038;-76
2022/07/22 09:02:40;;;;;;;1.15;0.60;;;17.50;99.90;;;;;;5011989;28;20041;-77
2022/07/22 09:05:08;;;;;;;1.38;0.43;;;17.60;99.90;;;;;;5011904;28;20042;-75
2022/07/22 09:07:39;;;;;;;2.33;0.80;;;17.60;99.90;;;;;;5011975;28;20042;-76
2022/07/22 09:10:07;;;;;;;2.58;0.60;;;17.60;99.90;;;;;;4996064;28;20041;-76
2022/07/22 09:12:34;;;;;;;0.75;0.55;;;17.60;99.90;;;;;;5011951;28;20050;-76
2022/07/22 09:15:02;;;;;;;2.40;0.70;;;17.50;99.90;;;;;;4995797;28;20121;-75
2022/07/22 09:17:38;;;;;;;0.93;0.70;;;17.60;99.90;;;;;;5015604;28;20041;-76
2022/07/22 09:20:24;;;;;;;1.05;0.63;;;17.50;99.90;;;;;;4998994;28;20409;-75
2022/07/22 09:22:51;;;;;;;2.35;0.63;;;17.60;99.90;;;;;;4982413;28;20038;-76
2022/07/22 09:25:33;;;;;;;1.15;0.70;;;17.60;99.90;;;;;;4998951;28;20115;-76
2022/07/22 09:28:07;;;;;;;3.10;0.85;;;17.70;99.90;;;;;;5015240;28;20034;-76
2022/07/22 09:30:48;;;;;;;0.38;0.38;;;17.70;99.90;;;;;;5015217;28;20080;-76
2022/07/22 09:33:22;;;;;;;1.38;0.60;;;17.70;99.90;;;;;;5015409;28;20459;-76
2022/07/22 09:35:49;;;;;;;0.57;0.57;;;17.80;99.90;;;;;;4999835;28;20045;-76
2022/07/22 09:38:16;;;;;;;1.33;0.93;;;18.00;99.90;;;;;;4982706;28;20128;-76
2022/07/22 09:40:44;;;;;;;0.57;0.38;;;18.00;99.90;;;;;;4983977;28;20077;-75
2022/07/22 09:43:12;;;;;;;1.90;0.60;;;18.10;99.90;;;;;;5000760;28;20099;-76
2022/07/22 09:45:50;;;;;;;0.98;0.60;;;18.00;99.90;;;;;;4998701;28;20033;-76
2022/07/22 09:48:18;;;;;;;1.83;0.75;;;18.00;99.90;;;;;;4999745;28;20072;-76
2022/07/22 09:50:45;;;;;;;4.18;0.88;;;18.00;99.90;;;;;;5018985;28;20041;-76
2022/07/22 09:53:11;;;;;;;1.42;0.50;;;18.00;99.90;;;;;;5018939;28;20042;-76
2022/07/22 09:55:39;;;;;;;1.05;0.32;;;18.10;99.90;;;;;;5018730;28;20124;-76
2022/07/22 09:58:07;;;;;;;5.60;0.73;;;18.10;99.90;;;;;;5018721;28;20099;-76
2022/07/22 10:00:34;;;;;;;1.00;0.60;;;18.00;99.90;;;;;;5002644;28;20052;-77
2022/07/22 10:03:02;;;;;;;0.88;0.50;;;18.00;99.90;;;;;;5002611;28;20485;-77
2022/07/22 10:05:33;;;;;;;1.42;0.57;;;18.10;99.90;;;;;;5018595;28;20033;-76
2022/07/22 10:08:01;;;;;;;1.08;0.38;;;18.10;99.90;;;;;;5018685;28;20095;-76
2022/07/22 10:10:28;;;;;;;1.52;0.60;;;18.20;99.90;;;;;;5018965;28;20037;-76
2022/07/22 10:12:56;;;;;;;4.47;0.65;;;18.20;99.90;;;;;;5018635;28;20073;-76
2022/07/22 10:15:24;;;;;;;2.03;0.75;;;18.20;99.90;;;;;;5001982;28;20053;-77
2022/07/22 10:17:52;;;;;;;3.28;0.70;;;18.10;99.90;;;;;;5018560;28;20397;-77
2022/07/22 10:20:20;;;;;;;1.77;0.80;;;18.20;99.90;;;;;;5018347;28;20041;-77
2022/07/22 10:22:52;;;;;;;0.75;0.32;;;18.20;99.90;;;;;;5018304;28;20049;-77
2022/07/22 10:25:19;;;;;;;0.73;0.55;;;18.20;99.90;;;;;;5018546;28;20045;-75
2022/07/22 10:27:45;;;;;;;1.73;0.80;;;18.20;99.90;;;;;;5018185;28;20049;-77
2022/07/22 10:30:13;;;;;;;1.23;0.50;;;18.10;99.90;;;;;;5018517;28;20129;-76
2022/07/22 10:32:42;;;;;;;0.65;0.40;;;18.10;99.90;;;;;;5001773;28;20037;-76
2022/07/22 10:35:21;;;;;;;0.70;0.50;;;18.20;99.90;;;;;;5017819;28;20041;-76
2022/07/22 10:37:49;;;;;;;0.88;0.55;;;18.10;99.90;;;;;;5017915;28;20033;-75
2022/07/22 10:40:26;;;;;;;1.15;0.73;;;18.10;99.90;;;;;;5001662;28;20500;-76
2022/07/22 10:43:00;;;;;;;0.75;0.47;;;18.20;99.90;;;;;;5002605;28;20041;-75
2022/07/22 10:45:29;;;;;;;2.55;0.52;;;18.20;99.90;;;;;;5018678;28;20042;-77
2022/07/22 10:47:58;;;;;;;1.40;0.70;;;18.20;99.90;;;;;;5001774;28;20481;-76
2022/07/22 10:50:36;;;;;;;2.45;0.47;;;18.20;99.90;;;;;;5001603;28;20037;-76
2022/07/22 10:53:03;;;;;;;0.82;0.40;;;18.20;99.90;;;;;;5018004;28;20478;-77
2022/07/22 10:55:29;;;;;;;0.30;0.30;;;18.10;99.90;;;;;;5017626;28;20037;-76
2022/07/22 10:57:55;;;;;;;0.98;0.43;;;18.00;99.90;;;;;;5001317;28;20611;-76
2022/07/22 11:00:21;;;;;;;0.30;0.30;;;18.00;99.90;;;;;;4999833;28;20060;-76
2022/07/22 11:02:47;;;;;;;0.95;0.55;;;18.00;99.90;;;;;;5001135;28;20041;-76
2022/07/22 11:05:13;;;;;;;1.23;0.32;;;17.90;99.90;;;;;;5001192;28;20048;-76
2022/07/22 11:07:47;;;;;;;1.55;0.52;;;18.00;99.90;;;;;;5017840;28;20525;-76
2022/07/22 11:10:17;;;;;;;0.80;0.43;;;17.90;99.90;;;;;;5017491;28;20469;-76
2022/07/22 11:12:44;;;;;;;1.85;0.43;;;18.00;99.90;;;;;;5002224;28;20049;-76
2022/07/22 11:15:12;;;;;;;0.38;0.32;;;18.00;99.90;;;;;;5017177;28;20045;-76
2022/07/22 11:17:39;;;;;;;1.27;0.52;;;18.10;99.90;;;;;;5001716;28;20563;-76
2022/07/22 11:20:08;;;;;;;1.30;0.40;;;18.30;99.90;;;;;;5000986;28;20090;-77
2022/07/22 11:22:38;;;;;;;2.88;0.63;;;18.20;99.90;;;;;;5000797;28;20046;-77
2022/07/22 11:25:08;;;;;;;1.15;0.55;;;18.30;99.90;;;;;;5000684;28;20076;-76
2022/07/22 11:27:34;;;;;;;;;;;18.40;99.90;;;;;;5017797;28;20033;-76
2022/07/22 11:30:00;;;;;;;2.72;0.40;;;18.40;99.90;;;;;;5000741;28;19966;-76
2022/07/22 11:32:30;;;;;;;2.72;0.38;;;18.40;99.90;;;;;;5017287;28;20037;-76
2022/07/22 11:34:57;;;;;;;2.90;0.73;;;18.60;99.90;;;;;;5000600;28;20041;-77
2022/07/22 11:37:24;;;;;;;1.02;0.50;;;18.70;99.90;;;;;;5001324;28;20049;-77
2022/07/22 11:40:06;;;;;;;0.43;0.22;;;18.80;99.90;;;;;;5000618;28;20502;-76
2022/07/22 11:42:32;;;;;;;3.60;0.45;;;18.70;99.90;;;;;;4986262;28;20042;-77
2022/07/22 11:44:58;;;;;;;0.30;0.30;;;18.70;99.90;;;;;;5000472;28;20045;-76
2022/07/22 11:47:24;;;;;;;0.30;0.28;;;18.70;99.90;;;;;;5000442;28;20045;-76
2022/07/22 11:49:50;;;;;;;0.47;0.30;;;18.80;99.90;;;;;;5000358;28;20513;-77
2022/07/22 11:52:16;;;;;;;0.95;0.60;;;18.80;99.90;;;;;;5000581;28;20634;-77
2022/07/22 11:54:44;;;;;;;1.17;0.50;;;18.80;99.90;;;;;;5000228;28;20095;-76
2022/07/22 11:57:11;;;;;;;1.63;0.60;;;18.80;99.90;;;;;;5016596;28;20050;-76
2022/07/22 11:59:36;;;;;;;1.98;0.47;;;18.90;99.90;;;;;;5016742;28;20464;-77
2022/07/22 12:02:06;;;;;;;1.50;0.50;;;18.90;99.90;;;;;;5000128;28;20132;-77
2022/07/22 12:04:33;;;;;;;4.63;0.52;;;19.00;99.90;;;;;;5000437;28;20477;-77
2022/07/22 12:07:02;;;;;;;3.85;0.77;;;19.00;99.90;;;;;;5000064;28;20457;-77
2022/07/22 12:09:36;;;;;;;0.85;0.40;;;19.00;99.90;;;;;;5016562;28;20042;-77
2022/07/22 12:12:03;;;;;;;2.50;0.63;;;19.00;99.90;;;;;;4999868;28;20096;-76
2022/07/22 12:14:32;;;;;;;0.20;0.20;;;19.00;99.90;;;;;;5016411;28;20046;-76
2022/07/22 12:17:00;;;;;;;5.00;0.50;;;19.00;99.90;;;;;;5015974;28;20125;-77
2022/07/22 12:19:31;;;;;;;1.33;0.52;;;19.10;99.90;;;;;;5016474;28;20068;-77
2022/07/22 12:22:13;;;;;;;0.28;0.28;;;19.20;99.90;;;;;;5016179;28;20499;-77
2022/07/22 12:24:57;;;;;;;0.40;0.30;;;19.10;99.90;;;;;;5016088;28;20080;-77
2022/07/22 12:27:23;;;;;;;1.05;0.40;;;19.00;99.90;;;;;;4999607;28;20037;-77
2022/07/22 12:29:49;;;;;;;0.52;0.30;;;18.80;99.90;;;;;;4983409;28;20508;-77
2022/07/22 12:32:18;;;;;;;0.77;0.38;;;18.70;99.90;;;;;;5015917;28;20151;-76
2022/07/22 12:35:08;;;;;;;0.30;0.30;;;18.60;99.90;;;;;;5015897;28;20045;-77
2022/07/22 12:37:44;;;;;;;0.35;0.30;;;18.60;99.90;;;;;;4999327;28;20409;-76
2022/07/22 12:40:16;;;;;;;1.40;0.50;;;18.50;99.90;;;;;;4999415;28;20124;-76
2022/07/22 12:42:45;;;;;;;0.65;0.40;;;18.40;99.90;;;;;;4999380;28;20464;-77
2022/07/22 12:45:16;;;;;;;1.08;0.60;;;18.90;99.90;;;;;;5016106;28;20123;-76
2022/07/22 12:47:59;;;;;;;3.22;0.47;;;18.50;99.90;;;;;;4983333;28;20516;-76